createdAt,value
2022-09-26T00:01:42.748Z,13.07
2022-09-26T00:04:30.431Z,13.06
2022-09-26T00:07:01.084Z,13.05
2022-09-26T00:09:29.666Z,13.05
2022-09-26T00:11:58.032Z,13.01
2022-09-26T00:14:29.837Z,13.00
2022-09-26T00:16:58.453Z,12.98
2022-09-26T00:19:27.152Z,12.99
2022-09-26T00:21:55.571Z,12.99
2022-09-26T00:24:23.966Z,12.99
2022-09-26T00:26:52.489Z,12.97
2022-09-26T00:29:20.841Z,12.99
2022-09-26T00:31:52.493Z,12.97
2022-09-26T00:34:21.326Z,12.97
2022-09-26T00:36:49.715Z,12.96
2022-09-26T00:39:18.279Z,12.94
2022-09-26T00:41:46.803Z,12.93
2022-09-26T00:44:55.328Z,12.95
2022-09-26T00:47:46.832Z,12.96
2022-09-26T00:50:34.443Z,12.94
2022-09-26T00:53:03.679Z,12.92
2022-09-26T00:55:36.350Z,12.91
2022-09-26T00:58:29.126Z,12.91
2022-09-26T01:00:57.748Z,12.90
2022-09-26T01:03:27.092Z,12.87
2022-09-26T01:05:56.222Z,12.86
2022-09-26T01:08:33.208Z,12.84
2022-09-26T01:11:01.653Z,12.81
2022-09-26T01:13:32.577Z,12.81
2022-09-26T01:16:00.921Z,12.80
2022-09-26T01:18:29.623Z,12.82
2022-09-26T01:21:23.505Z,12.85
2022-09-26T01:24:33.201Z,12.87
2022-09-26T01:27:19.965Z,12.83
2022-09-26T01:30:13.068Z,12.83
2022-09-26T01:33:07.567Z,12.82
2022-09-26T01:35:47.350Z,12.79
2022-09-26T01:38:39.381Z,12.78
2022-09-26T01:41:35.217Z,12.77
2022-09-26T01:44:42.481Z,12.75
2022-09-26T01:47:29.066Z,12.72
2022-09-26T01:50:24.498Z,12.73
2022-09-26T01:53:16.940Z,12.74
2022-09-26T01:55:55.993Z,12.72
2022-09-26T01:58:29.167Z,12.70
2022-09-26T02:01:02.329Z,12.69
2022-09-26T02:03:37.839Z,12.65
2022-09-26T02:06:12.819Z,12.64
2022-09-26T02:09:18.941Z,12.67
2022-09-26T02:11:52.364Z,12.69
2022-09-26T02:14:35.026Z,12.71
2022-09-26T02:17:28.335Z,12.69
2022-09-26T02:20:20.675Z,12.69
2022-09-26T02:22:49.090Z,12.68
2022-09-26T02:25:17.629Z,12.69
2022-09-26T02:27:45.962Z,12.70
2022-09-26T02:30:14.503Z,12.70
2022-09-26T02:32:42.945Z,12.68
2022-09-26T02:35:31.664Z,12.69
2022-09-26T02:38:00.138Z,12.69
2022-09-26T02:40:48.603Z,12.71
2022-09-26T02:43:44.618Z,12.69
2022-09-26T02:46:18.420Z,12.68
2022-09-26T02:49:12.951Z,12.66
2022-09-26T02:52:16.779Z,12.65
2022-09-26T02:54:46.515Z,12.65
2022-09-26T02:57:26.950Z,12.64
2022-09-26T03:00:12.034Z,12.67
2022-09-26T03:02:41.677Z,12.68
2022-09-26T03:05:23.725Z,12.69
2022-09-26T03:07:59.569Z,12.70
2022-09-26T03:10:28.931Z,12.70
2022-09-26T03:13:04.688Z,12.73
2022-09-26T03:15:35.443Z,12.73
2022-09-26T03:18:07.768Z,12.76
2022-09-26T03:20:36.831Z,12.75
2022-09-26T03:23:05.992Z,12.74
2022-09-26T03:25:34.599Z,12.74
2022-09-26T03:28:02.990Z,12.74
2022-09-26T03:30:31.576Z,12.75
2022-09-26T03:33:00.075Z,12.73
2022-09-26T03:35:28.437Z,12.74
2022-09-26T03:37:56.787Z,12.73
2022-09-26T03:40:25.643Z,12.72
2022-09-26T03:42:54.031Z,12.71
2022-09-26T03:45:22.432Z,12.75
2022-09-26T03:47:58.088Z,12.75
2022-09-26T03:50:27.182Z,12.75
2022-09-26T03:52:55.574Z,12.73
2022-09-26T03:55:23.927Z,12.71
2022-09-26T03:57:52.314Z,12.67
2022-09-26T04:00:20.750Z,12.67
2022-09-26T04:02:49.167Z,12.67
2022-09-26T04:05:17.193Z,12.67
2022-09-26T04:07:47.400Z,12.68
2022-09-26T04:10:16.334Z,12.69
2022-09-26T04:12:46.402Z,12.70
2022-09-26T04:15:14.854Z,12.69
2022-09-26T04:17:43.264Z,12.68
2022-09-26T04:20:11.936Z,12.68
2022-09-26T04:22:42.029Z,12.63
2022-09-26T04:25:10.711Z,12.58
2022-09-26T04:27:39.237Z,12.52
2022-09-26T04:30:08.161Z,12.45
2022-09-26T04:32:37.048Z,12.39
2022-09-26T04:35:05.706Z,12.28
2022-09-26T04:37:37.145Z,12.23
2022-09-26T04:40:06.086Z,12.17
2022-09-26T04:42:37.011Z,12.10
2022-09-26T04:45:06.329Z,12.00
2022-09-26T04:47:34.731Z,11.94
2022-09-26T04:50:03.118Z,11.89
2022-09-26T04:52:31.481Z,11.84
2022-09-26T04:54:59.827Z,11.83
2022-09-26T04:57:29.755Z,11.77
2022-09-26T04:59:58.147Z,11.75
2022-09-26T05:02:26.671Z,11.71
2022-09-26T05:04:55.274Z,11.71
2022-09-26T05:07:23.651Z,11.70
2022-09-26T05:09:53.141Z,11.68
2022-09-26T05:12:21.102Z,11.64
2022-09-26T05:14:49.086Z,11.61
2022-09-26T05:17:17.010Z,11.57
2022-09-26T05:19:45.471Z,11.55
2022-09-26T05:22:13.858Z,11.53
2022-09-26T05:24:59.753Z,11.50
2022-09-26T05:27:28.122Z,11.51
2022-09-26T05:29:56.572Z,11.52
2022-09-26T05:32:26.997Z,11.52
2022-09-26T05:34:56.227Z,11.53
2022-09-26T05:37:24.591Z,11.53
2022-09-26T05:40:10.405Z,11.49
2022-09-26T05:42:38.479Z,11.48
2022-09-26T05:45:07.298Z,11.46
2022-09-26T05:47:37.378Z,11.45
2022-09-26T05:50:10.049Z,11.40
2022-09-26T05:52:40.166Z,11.41
2022-09-26T05:55:08.581Z,11.42
2022-09-26T05:57:36.960Z,11.45
2022-09-26T06:00:07.493Z,11.48
2022-09-26T06:02:35.877Z,11.48
2022-09-26T06:05:04.334Z,11.53
2022-09-26T06:07:33.713Z,11.57
2022-09-26T06:10:01.689Z,11.61
2022-09-26T06:12:30.174Z,11.65
2022-09-26T06:14:58.629Z,11.73
2022-09-26T06:17:27.166Z,11.79
2022-09-26T06:19:55.141Z,11.87
2022-09-26T06:22:24.533Z,11.97
2022-09-26T06:24:52.929Z,12.03
2022-09-26T06:27:21.010Z,12.09
2022-09-26T06:29:49.579Z,12.11
2022-09-26T06:32:17.926Z,12.14
2022-09-26T06:34:46.311Z,12.20
2022-09-26T06:37:14.701Z,12.22
2022-09-26T06:39:43.167Z,12.25
2022-09-26T06:42:11.557Z,12.29
2022-09-26T06:44:39.890Z,12.33
2022-09-26T06:47:08.042Z,12.36
2022-09-26T06:49:36.731Z,12.39
2022-09-26T06:52:05.107Z,12.42
2022-09-26T06:54:33.495Z,12.42
2022-09-26T06:57:01.938Z,12.42
2022-09-26T06:59:30.287Z,12.43
2022-09-26T07:01:58.411Z,12.43
2022-09-26T07:04:27.553Z,12.43
2022-09-26T07:06:58.332Z,12.43
2022-09-26T07:09:26.879Z,12.47
2022-09-26T07:14:44.486Z,12.48
2022-09-26T07:17:16.819Z,12.51
2022-09-26T07:19:46.740Z,12.54
2022-09-26T07:22:16.508Z,12.56
2022-09-26T07:24:50.258Z,12.57
2022-09-26T07:27:19.236Z,12.59
2022-09-26T07:29:48.876Z,12.64
2022-09-26T07:32:17.341Z,12.65
2022-09-26T07:34:45.748Z,12.67
2022-09-26T07:37:14.135Z,12.69
2022-09-26T07:39:44.027Z,12.72
2022-09-26T07:42:13.338Z,12.74
2022-09-26T07:45:17.506Z,12.77
2022-09-26T07:47:52.117Z,12.82
2022-09-26T07:50:20.711Z,12.86
2022-09-26T07:52:51.149Z,12.90
2022-09-26T07:55:23.616Z,12.95
2022-09-26T07:57:52.810Z,12.97
2022-09-26T08:00:22.932Z,12.98
2022-09-26T08:02:52.934Z,13.00
2022-09-26T08:05:21.389Z,13.02
2022-09-26T08:07:50.276Z,13.06
2022-09-26T08:10:22.188Z,13.08
2022-09-26T08:12:50.922Z,13.13
2022-09-26T08:15:18.986Z,13.16
2022-09-26T08:17:47.362Z,13.21
2022-09-26T08:20:15.724Z,13.22
2022-09-26T08:22:44.063Z,13.26
2022-09-26T08:25:12.466Z,13.32
2022-09-26T08:27:43.860Z,13.37
2022-09-26T08:30:12.719Z,13.42
2022-09-26T08:32:41.140Z,13.46
2022-09-26T08:35:15.021Z,13.50
2022-09-26T08:37:43.520Z,13.53
2022-09-26T08:40:12.350Z,13.56
2022-09-26T08:43:04.257Z,13.63
2022-09-26T08:46:07.143Z,13.64
2022-09-26T08:49:24.854Z,13.72
2022-09-26T08:51:56.145Z,13.77
2022-09-26T08:54:41.306Z,13.85
2022-09-26T08:57:40.101Z,13.93
2022-09-26T09:00:24.908Z,13.97
2022-09-26T09:03:11.763Z,14.01
2022-09-26T09:06:15.154Z,14.04
2022-09-26T09:08:56.252Z,14.07
2022-09-26T09:11:39.227Z,14.15
2022-09-26T09:14:14.710Z,14.19
2022-09-26T09:17:34.688Z,14.22
2022-09-26T09:20:39.529Z,14.23
2022-09-26T09:23:36.499Z,14.27
2022-09-26T09:29:19.130Z,14.32
2022-09-26T09:31:48.090Z,14.34
2022-09-26T09:34:29.290Z,14.36
2022-09-26T09:37:02.770Z,14.37
2022-09-26T09:39:36.872Z,14.44
2022-09-26T09:42:37.557Z,14.46
2022-09-26T09:45:31.129Z,14.52
2022-09-26T09:47:59.590Z,14.52
2022-09-26T09:50:54.606Z,14.55
2022-09-26T09:54:12.557Z,14.63
2022-09-26T09:57:38.855Z,14.70
2022-09-26T10:00:17.242Z,14.74
2022-09-26T10:03:01.256Z,14.84
2022-09-26T10:05:42.770Z,14.88
2022-09-26T10:08:15.870Z,14.92
2022-09-26T10:10:59.184Z,15.00
2022-09-26T10:13:32.677Z,15.10
2022-09-26T10:16:06.014Z,15.17
2022-09-26T10:18:35.241Z,15.21
2022-09-26T10:21:19.085Z,15.25
2022-09-26T10:23:50.500Z,15.24
2022-09-26T10:26:31.411Z,15.31
2022-09-26T10:29:08.209Z,15.33
2022-09-26T10:31:42.861Z,15.42
2022-09-26T10:34:31.538Z,15.57
2022-09-26T10:37:23.925Z,15.59
2022-09-26T10:40:15.607Z,15.54
2022-09-26T10:42:47.181Z,15.52
2022-09-26T10:45:29.285Z,15.51
2022-09-26T10:47:59.355Z,15.58
2022-09-26T10:50:31.131Z,15.64
2022-09-26T10:53:09.021Z,15.69
2022-09-26T10:56:08.773Z,15.80
2022-09-26T10:58:44.776Z,15.89
2022-09-26T11:01:26.903Z,15.94
2022-09-26T11:03:57.552Z,16.03
2022-09-26T11:06:38.520Z,16.12
2022-09-26T11:09:07.700Z,16.24
2022-09-26T11:11:39.973Z,16.38
2022-09-26T11:14:10.053Z,16.51
2022-09-26T11:16:55.715Z,16.55
2022-09-26T11:19:36.645Z,16.50
2022-09-26T11:22:26.942Z,16.47
2022-09-26T11:25:22.629Z,16.47
2022-09-26T11:28:14.106Z,16.54
2022-09-26T11:30:48.314Z,16.53
2022-09-26T11:33:18.906Z,16.54
2022-09-26T11:36:45.321Z,16.49
2022-09-26T11:39:39.269Z,16.44
2022-09-26T11:42:25.952Z,16.38
2022-09-26T11:45:17.139Z,16.38
2022-09-26T11:47:46.544Z,16.33
2022-09-26T11:50:25.489Z,16.27
2022-09-26T11:53:32.882Z,16.19
2022-09-26T11:56:12.822Z,16.15
2022-09-26T11:59:23.813Z,16.13
2022-09-26T12:02:33.192Z,16.07
2022-09-26T12:05:36.394Z,16.07
2022-09-26T12:08:23.322Z,16.09
2022-09-26T12:11:38.093Z,16.17
2022-09-26T12:14:23.705Z,16.27
2022-09-26T12:17:26.241Z,16.30
2022-09-26T12:20:07.009Z,16.21
2022-09-26T12:23:02.195Z,16.14
2022-09-26T12:25:46.318Z,16.15
2022-09-26T12:28:53.914Z,16.23
2022-09-26T12:31:42.953Z,16.30
2022-09-26T12:34:59.184Z,16.34
2022-09-26T12:38:17.554Z,16.38
2022-09-26T12:41:02.945Z,16.32
2022-09-26T12:44:00.218Z,16.30
2022-09-26T12:46:49.168Z,16.30
2022-09-26T12:49:41.776Z,16.28
2022-09-26T12:52:43.237Z,16.29
2022-09-26T12:55:45.307Z,16.24
2022-09-26T12:58:47.067Z,16.30
2022-09-26T13:01:33.519Z,16.36
2022-09-26T13:04:26.458Z,16.37
2022-09-26T13:07:20.776Z,16.38
2022-09-26T13:10:28.958Z,16.37
2022-09-26T13:13:15.300Z,16.36
2022-09-26T13:16:16.244Z,16.34
2022-09-26T13:18:51.233Z,16.30
2022-09-26T13:21:28.530Z,16.27
2022-09-26T13:24:02.384Z,16.18
2022-09-26T13:26:42.874Z,16.11
2022-09-26T13:29:21.909Z,16.10
2022-09-26T13:32:11.203Z,16.07
2022-09-26T13:34:49.164Z,16.07
2022-09-26T13:37:59.157Z,16.13
2022-09-26T13:40:35.830Z,16.25
2022-09-26T13:43:14.622Z,16.42
2022-09-26T13:45:56.084Z,16.46
2022-09-26T13:48:51.977Z,16.45
2022-09-26T13:51:41.983Z,16.37
2022-09-26T13:54:27.415Z,16.30
2022-09-26T13:56:56.090Z,16.21
2022-09-26T13:59:51.580Z,16.31
2022-09-26T14:02:28.519Z,16.29
2022-09-26T14:05:02.687Z,16.38
2022-09-26T14:08:09.695Z,16.46
2022-09-26T14:10:41.454Z,16.51
2022-09-26T14:13:28.319Z,16.52
2022-09-26T14:16:02.706Z,16.52
2022-09-26T14:18:56.682Z,16.46
2022-09-26T14:21:54.526Z,16.41
2022-09-26T14:24:22.801Z,16.33
2022-09-26T14:27:14.100Z,16.28
2022-09-26T14:29:44.549Z,16.19
2022-09-26T14:32:20.921Z,16.14
2022-09-26T14:34:55.100Z,16.08
2022-09-26T14:37:26.102Z,16.04
2022-09-26T14:40:17.186Z,16.02
2022-09-26T14:42:45.560Z,16.00
2022-09-26T14:45:48.505Z,16.06
2022-09-26T14:48:20.621Z,16.03
2022-09-26T14:51:15.482Z,16.05
2022-09-26T14:53:49.711Z,16.11
2022-09-26T14:56:26.314Z,16.14
2022-09-26T14:58:56.061Z,16.09
2022-09-26T15:01:24.512Z,16.04
2022-09-26T15:04:25.445Z,15.91
2022-09-26T15:07:02.258Z,15.80
2022-09-26T15:09:41.510Z,15.76
2022-09-26T15:12:27.497Z,15.76
2022-09-26T15:15:10.836Z,15.72
2022-09-26T15:17:45.734Z,15.68
2022-09-26T15:20:20.205Z,15.62
2022-09-26T15:22:50.350Z,15.55
2022-09-26T15:25:27.012Z,15.53
2022-09-26T15:27:56.765Z,15.53
2022-09-26T15:30:36.493Z,15.50
2022-09-26T15:33:06.086Z,15.51
2022-09-26T15:35:35.150Z,15.41
2022-09-26T15:38:11.807Z,15.42
2022-09-26T15:40:40.309Z,15.34
2022-09-26T15:43:10.370Z,15.32
2022-09-26T15:45:38.726Z,15.28
2022-09-26T15:48:28.350Z,15.24
2022-09-26T15:51:21.791Z,15.17
2022-09-26T15:54:06.293Z,15.12
2022-09-26T15:56:39.377Z,15.06
2022-09-26T15:59:19.570Z,15.02
2022-09-26T16:01:49.773Z,14.98
2022-09-26T16:04:28.315Z,14.96
2022-09-26T16:07:07.256Z,14.91
2022-09-26T16:09:43.247Z,14.86
2022-09-26T16:12:19.112Z,14.83
2022-09-26T16:14:54.879Z,14.77
2022-09-26T16:17:37.545Z,14.73
2022-09-26T16:20:14.501Z,14.70
2022-09-26T16:22:46.896Z,14.65
2022-09-26T16:25:27.581Z,14.61
2022-09-26T16:27:58.464Z,14.59
2022-09-26T16:30:27.202Z,14.58
2022-09-26T16:33:30.831Z,14.54
2022-09-26T16:36:19.103Z,14.54
2022-09-26T16:38:57.102Z,14.50
2022-09-26T16:44:36.044Z,14.41
2022-09-26T16:47:19.027Z,14.38
2022-09-26T16:49:49.447Z,14.38
2022-09-26T16:52:31.094Z,14.37
2022-09-26T16:55:02.023Z,14.31
2022-09-26T16:57:34.489Z,14.29
2022-09-26T17:00:35.312Z,14.25
2022-09-26T17:03:05.037Z,14.21
2022-09-26T17:05:33.497Z,14.18
2022-09-26T17:08:02.016Z,14.13
2022-09-26T17:10:32.363Z,14.12
2022-09-26T17:13:02.728Z,14.11
2022-09-26T17:15:32.939Z,14.09
2022-09-26T17:18:01.474Z,14.06
2022-09-26T17:20:30.135Z,14.05
2022-09-26T17:23:07.824Z,14.02
2022-09-26T17:25:52.959Z,14.03
2022-09-26T17:28:38.973Z,14.02
2022-09-26T17:31:09.264Z,14.01
2022-09-26T17:33:42.643Z,13.98
2022-09-26T17:36:29.854Z,13.97
2022-09-26T17:38:59.549Z,13.94
2022-09-26T17:41:29.870Z,13.93
2022-09-26T17:44:00.339Z,13.91
2022-09-26T17:46:29.668Z,13.90
2022-09-26T17:48:59.311Z,13.87
2022-09-26T17:51:29.360Z,13.86
2022-09-26T17:53:57.795Z,13.85
2022-09-26T17:56:26.733Z,13.88
2022-09-26T17:58:56.966Z,13.87
2022-09-26T18:01:33.693Z,13.89
2022-09-26T18:04:06.428Z,13.92
2022-09-26T18:06:36.309Z,13.94
2022-09-26T18:09:10.140Z,13.93
2022-09-26T18:11:41.703Z,13.95
2022-09-26T18:14:15.594Z,13.97
2022-09-26T18:16:45.001Z,13.99
2022-09-26T18:19:13.675Z,13.98
2022-09-26T18:21:42.120Z,13.98
2022-09-26T18:24:19.941Z,13.97
2022-09-26T18:26:50.884Z,13.93
2022-09-26T18:29:32.046Z,13.96
2022-09-26T18:32:01.419Z,13.97
2022-09-26T18:34:29.862Z,13.98
2022-09-26T18:37:00.348Z,13.98
2022-09-26T18:39:29.924Z,13.98
2022-09-26T18:42:09.176Z,13.96
2022-09-26T18:44:38.117Z,13.93
2022-09-26T18:47:14.448Z,13.95
2022-09-26T18:49:43.184Z,13.93
2022-09-26T18:52:19.568Z,13.92
2022-09-26T18:55:08.111Z,13.91
2022-09-26T18:57:53.825Z,13.94
2022-09-26T19:00:22.289Z,13.94
2022-09-26T19:02:51.342Z,13.95
2022-09-26T19:05:20.121Z,13.96
2022-09-26T19:07:48.649Z,13.97
2022-09-26T19:10:19.021Z,13.97
2022-09-26T19:12:47.177Z,13.98
2022-09-26T19:15:16.954Z,13.98
2022-09-26T19:17:45.502Z,13.98
2022-09-26T19:20:13.991Z,13.95
2022-09-26T19:22:42.506Z,13.96
2022-09-26T19:25:11.726Z,13.97
2022-09-26T19:27:52.169Z,13.95
2022-09-26T19:30:22.767Z,13.92
2022-09-26T19:32:54.495Z,13.89
2022-09-26T19:35:29.520Z,13.88
2022-09-26T19:38:02.019Z,13.85
2022-09-26T19:40:30.668Z,13.82
2022-09-26T19:42:59.248Z,13.79
2022-09-26T19:45:32.185Z,13.80
2022-09-26T19:48:01.320Z,13.73
2022-09-26T19:50:30.267Z,13.68
2022-09-26T19:52:59.219Z,13.66
2022-09-26T19:55:30.082Z,13.65
2022-09-26T19:58:11.877Z,13.63
2022-09-26T20:00:41.692Z,13.62
2022-09-26T20:03:40.020Z,13.62
2022-09-26T20:06:27.514Z,13.64
2022-09-26T20:09:01.698Z,13.65
2022-09-26T20:11:30.452Z,13.65
2022-09-26T20:14:16.493Z,13.65
2022-09-26T20:16:45.137Z,13.65
2022-09-26T20:19:27.826Z,13.67
2022-09-26T20:21:59.801Z,13.67
2022-09-26T20:24:29.039Z,13.65
2022-09-26T20:26:57.699Z,13.65
2022-09-26T20:29:26.240Z,13.66
2022-09-26T20:31:54.666Z,13.64
2022-09-26T20:34:23.071Z,13.65
2022-09-26T20:36:52.761Z,13.64
2022-09-26T20:39:27.043Z,13.63
2022-09-26T20:41:56.609Z,13.62
2022-09-26T20:44:28.521Z,13.62
2022-09-26T20:47:04.213Z,13.63
2022-09-26T20:49:46.397Z,13.63
2022-09-26T20:52:22.619Z,13.62
2022-09-26T20:54:52.132Z,13.62
2022-09-26T20:57:22.246Z,13.62
2022-09-26T20:59:51.604Z,13.59
2022-09-26T21:02:38.391Z,13.56
2022-09-26T21:08:27.773Z,13.52
2022-09-26T21:10:58.231Z,13.52
2022-09-26T21:13:26.649Z,13.46
2022-09-26T21:15:55.139Z,13.45
2022-09-26T21:18:30.100Z,13.44
2022-09-26T21:21:05.838Z,13.46
2022-09-26T21:23:42.123Z,13.44
2022-09-26T21:26:23.218Z,13.47
2022-09-26T21:28:53.457Z,13.44
2022-09-26T21:31:23.295Z,13.43
2022-09-26T21:33:52.226Z,13.42
2022-09-26T21:36:22.128Z,13.42
2022-09-26T21:38:53.589Z,13.43
2022-09-26T21:41:22.136Z,13.42
2022-09-26T21:44:04.187Z,13.44
2022-09-26T21:46:32.716Z,13.41
2022-09-26T21:49:01.172Z,13.43
2022-09-26T21:51:30.616Z,13.40
2022-09-26T21:54:08.052Z,13.42
2022-09-26T21:56:46.673Z,13.43
2022-09-26T21:59:15.235Z,13.39
2022-09-26T22:01:43.839Z,13.40
2022-09-26T22:04:13.246Z,13.40
2022-09-26T22:06:42.557Z,13.40
2022-09-26T22:09:11.349Z,13.41
2022-09-26T22:11:39.809Z,13.41
2022-09-26T22:14:08.311Z,13.39
2022-09-26T22:16:36.866Z,13.38
2022-09-26T22:19:05.404Z,13.37
2022-09-26T22:21:33.945Z,13.38
2022-09-26T22:24:02.617Z,13.35
2022-09-26T22:26:31.101Z,13.37
2022-09-26T22:28:59.506Z,13.37
2022-09-26T22:31:28.017Z,13.38
2022-09-26T22:34:00.451Z,13.40
2022-09-26T22:36:28.972Z,13.39
2022-09-26T22:38:57.076Z,13.40
2022-09-26T22:41:25.505Z,13.40
2022-09-26T22:43:54.101Z,13.41
2022-09-26T22:46:22.768Z,13.40
2022-09-26T22:48:51.218Z,13.40
2022-09-26T22:51:19.993Z,13.39
2022-09-26T22:53:48.446Z,13.40
2022-09-26T22:56:17.986Z,13.40
2022-09-26T22:58:52.307Z,13.41
2022-09-26T23:01:24.482Z,13.41
2022-09-26T23:03:53.395Z,13.40
2022-09-26T23:06:23.932Z,13.41
2022-09-26T23:08:52.786Z,13.39
2022-09-26T23:11:21.936Z,13.41
2022-09-26T23:13:53.077Z,13.41
2022-09-26T23:16:25.412Z,13.41
2022-09-26T23:18:54.351Z,13.38
2022-09-26T23:21:25.874Z,13.39
2022-09-26T23:23:56.830Z,13.39
2022-09-26T23:26:32.603Z,13.40
2022-09-26T23:29:01.400Z,13.36
2022-09-26T23:31:30.289Z,13.37
2022-09-26T23:33:59.200Z,13.33
2022-09-26T23:36:27.739Z,13.32
2022-09-26T23:38:58.947Z,13.33
2022-09-26T23:41:27.479Z,13.24
2022-09-26T23:43:56.091Z,13.17
2022-09-26T23:46:24.548Z,13.13
2022-09-26T23:48:53.086Z,13.11
2022-09-26T23:51:21.400Z,13.07
2022-09-26T23:53:50.028Z,13.06
2022-09-26T23:56:18.375Z,13.05
2022-09-26T23:58:47.986Z,13.04
